createdAt,value
2018-12-10T00:01:15.008Z,72.94
2018-12-10T00:03:42.543Z,72.41
2018-12-10T00:06:10.038Z,71.81
2018-12-10T00:08:37.476Z,70.96
2018-12-10T00:11:05.025Z,71.16
2018-12-10T00:13:32.438Z,72.63
2018-12-10T00:15:59.935Z,71.61
2018-12-10T00:18:27.339Z,72.59
2018-12-10T00:20:54.754Z,72.71
2018-12-10T00:23:22.222Z,74.25
2018-12-10T00:25:49.646Z,73.09
2018-12-10T00:28:17.243Z,72.03
2018-12-10T00:30:44.658Z,71.30
2018-12-10T00:33:12.127Z,71.83
2018-12-10T00:35:39.542Z,71.01
2018-12-10T00:38:06.963Z,70.79
2018-12-10T00:40:34.404Z,70.76
2018-12-10T00:43:01.828Z,70.15
2018-12-10T00:45:29.323Z,70.13
2018-12-10T00:47:56.732Z,70.40
2018-12-10T00:50:24.154Z,70.65
2018-12-10T00:52:51.591Z,71.42
2018-12-10T00:55:19.020Z,71.43
2018-12-10T00:57:46.507Z,71.79
2018-12-10T01:00:13.923Z,71.82
2018-12-10T01:02:41.352Z,71.56
2018-12-10T01:05:08.779Z,72.57
2018-12-10T01:07:36.748Z,73.52
2018-12-10T01:10:04.181Z,74.07
2018-12-10T01:12:31.628Z,74.90
2018-12-10T01:14:59.047Z,75.66
2018-12-10T01:17:26.459Z,75.34
2018-12-10T01:19:54.571Z,75.76
2018-12-10T01:22:22.003Z,75.08
2018-12-10T01:24:49.512Z,75.50
2018-12-10T01:27:16.928Z,75.83
2018-12-10T01:29:44.360Z,75.46
2018-12-10T01:32:11.845Z,75.68
2018-12-10T01:34:39.266Z,75.77
2018-12-10T01:37:06.701Z,75.47
2018-12-10T01:39:34.120Z,75.68
2018-12-10T01:42:01.540Z,73.92
2018-12-10T01:44:28.950Z,75.03
2018-12-10T01:46:56.474Z,73.97
2018-12-10T01:49:23.934Z,73.14
2018-12-10T01:51:51.369Z,72.43
2018-12-10T01:54:19.248Z,72.40
2018-12-10T01:56:46.659Z,70.88
2018-12-10T01:59:14.075Z,71.38
2018-12-10T02:01:41.554Z,71.03
2018-12-10T02:04:08.975Z,71.27
2018-12-10T02:06:36.447Z,70.28
2018-12-10T02:09:04.145Z,70.14
2018-12-10T02:11:31.553Z,69.89
2018-12-10T02:13:58.972Z,70.11
2018-12-10T02:16:26.407Z,69.75
2018-12-10T02:18:53.820Z,70.12
2018-12-10T02:21:21.291Z,70.54
2018-12-10T02:23:48.723Z,69.52
2018-12-10T02:26:16.155Z,69.34
2018-12-10T02:29:15.351Z,69.14
2018-12-10T02:31:42.787Z,69.33
2018-12-10T02:34:10.205Z,68.80
2018-12-10T02:36:37.625Z,69.44
2018-12-10T02:39:05.251Z,68.99
2018-12-10T02:41:32.678Z,70.14
2018-12-10T02:44:00.860Z,70.65
2018-12-10T02:46:28.335Z,69.68
2018-12-10T02:48:55.798Z,70.06
2018-12-10T02:51:23.276Z,69.81
2018-12-10T02:53:50.687Z,71.10
2018-12-10T02:56:18.101Z,70.85
2018-12-10T02:58:45.513Z,71.39
2018-12-10T03:01:12.979Z,71.55
2018-12-10T03:03:40.464Z,72.26
2018-12-10T03:06:07.879Z,72.42
2018-12-10T03:08:35.311Z,72.67
2018-12-10T03:11:02.806Z,73.79
2018-12-10T03:13:30.227Z,73.17
2018-12-10T03:15:57.649Z,73.31
2018-12-10T03:18:25.069Z,73.56
2018-12-10T03:20:53.083Z,72.77
2018-12-10T03:23:20.660Z,73.85
2018-12-10T03:25:48.088Z,75.00
2018-12-10T03:28:15.516Z,75.75
2018-12-10T03:30:43.093Z,76.24
2018-12-10T03:33:10.642Z,76.15
2018-12-10T03:35:38.121Z,75.78
2018-12-10T03:38:05.561Z,77.09
2018-12-10T03:40:32.983Z,77.90
2018-12-10T03:43:00.407Z,78.56
2018-12-10T03:45:27.858Z,78.89
2018-12-10T03:47:55.352Z,79.28
2018-12-10T03:50:22.795Z,80.00
2018-12-10T03:52:50.297Z,79.37
2018-12-10T03:55:17.712Z,79.52
2018-12-10T03:57:45.144Z,79.63
2018-12-10T04:00:12.565Z,80.09
2018-12-10T04:02:40.024Z,80.04
2018-12-10T04:05:07.676Z,80.57
2018-12-10T04:07:35.255Z,81.52
2018-12-10T04:10:02.731Z,81.19
2018-12-10T04:12:30.371Z,81.40
2018-12-10T04:14:57.779Z,80.60
2018-12-10T04:17:25.293Z,81.23
2018-12-10T04:19:52.712Z,80.39
2018-12-10T04:22:20.145Z,80.39
2018-12-10T04:24:47.655Z,78.77
2018-12-10T04:27:15.066Z,79.34
2018-12-10T04:29:42.577Z,79.47
2018-12-10T04:32:09.991Z,79.00
2018-12-10T04:34:38.244Z,79.84
2018-12-10T04:37:05.671Z,78.74
2018-12-10T04:39:33.123Z,78.88
2018-12-10T04:42:00.577Z,79.13
2018-12-10T04:44:28.059Z,79.46
2018-12-10T04:46:55.484Z,78.63
2018-12-10T04:49:22.912Z,78.86
2018-12-10T04:51:50.347Z,78.59
2018-12-10T04:54:17.751Z,78.11
2018-12-10T04:56:45.167Z,79.04
2018-12-10T04:59:12.587Z,78.51
2018-12-10T05:01:40.035Z,79.07
2018-12-10T05:04:07.462Z,77.78
2018-12-10T05:06:34.873Z,77.54
2018-12-10T05:09:02.637Z,77.59
2018-12-10T05:11:30.049Z,77.07
2018-12-10T05:13:57.463Z,78.06
2018-12-10T05:16:24.898Z,77.33
2018-12-10T05:18:52.323Z,77.00
2018-12-10T05:21:19.756Z,76.82
2018-12-10T05:23:47.173Z,77.30
2018-12-10T05:26:14.592Z,77.56
2018-12-10T05:28:42.074Z,77.36
2018-12-10T05:31:09.487Z,77.65
2018-12-10T05:33:36.930Z,77.62
2018-12-10T05:36:04.343Z,77.67
2018-12-10T05:38:31.760Z,77.32
2018-12-10T05:40:59.291Z,78.06
2018-12-10T05:43:26.816Z,77.96
2018-12-10T05:45:55.586Z,77.78
2018-12-10T05:48:23.279Z,78.50
2018-12-10T05:50:50.703Z,78.00
2018-12-10T05:53:18.152Z,78.33
2018-12-10T05:55:45.569Z,78.39
2018-12-10T05:58:12.988Z,77.65
2018-12-10T06:00:40.448Z,78.08
2018-12-10T06:03:07.866Z,77.47
2018-12-10T06:05:35.297Z,77.60
2018-12-10T06:08:02.720Z,77.17
2018-12-10T06:10:30.691Z,77.50
2018-12-10T06:12:58.134Z,77.59
2018-12-10T06:15:26.053Z,78.31
2018-12-10T06:17:53.680Z,78.09
2018-12-10T06:20:21.099Z,78.83
2018-12-10T06:22:48.512Z,79.93
2018-12-10T06:25:15.955Z,80.75
2018-12-10T06:27:43.395Z,81.53
2018-12-10T06:30:10.916Z,81.62
2018-12-10T06:32:38.463Z,82.80
2018-12-10T06:35:05.889Z,83.08
2018-12-10T06:37:37.544Z,83.23
2018-12-10T06:40:02.809Z,83.49
2018-12-10T06:42:30.290Z,83.82
2018-12-10T06:44:57.793Z,83.83
2018-12-10T06:47:25.276Z,83.49
2018-12-10T06:49:52.792Z,82.78
2018-12-10T06:52:20.247Z,83.53
2018-12-10T06:54:47.691Z,83.40
2018-12-10T06:57:15.137Z,83.49
2018-12-10T06:59:42.613Z,83.43
2018-12-10T07:02:10.079Z,83.24
2018-12-10T07:04:37.800Z,82.64
2018-12-10T07:07:05.287Z,82.69
2018-12-10T07:09:32.773Z,83.51
2018-12-10T07:12:00.232Z,82.54
2018-12-10T07:14:27.672Z,82.56
2018-12-10T07:16:55.285Z,81.61
2018-12-10T07:19:22.769Z,82.16
2018-12-10T07:21:50.264Z,82.08
2018-12-10T07:24:17.803Z,82.53
2018-12-10T07:26:45.269Z,82.15
2018-12-10T07:29:12.749Z,81.98
2018-12-10T07:31:40.194Z,82.71
2018-12-10T07:34:07.630Z,82.95
2018-12-10T07:36:35.087Z,83.02
2018-12-10T07:39:02.631Z,83.31
2018-12-10T07:41:30.146Z,83.57
2018-12-10T07:43:57.547Z,82.75
2018-12-10T07:46:24.993Z,82.67
2018-12-10T07:48:52.448Z,83.20
2018-12-10T07:51:20.132Z,82.24
2018-12-10T07:53:47.557Z,81.46
2018-12-10T07:56:15.190Z,80.59
2018-12-10T07:58:42.701Z,80.65
2018-12-10T08:01:10.175Z,79.15
2018-12-10T08:03:37.615Z,79.19
2018-12-10T08:06:05.116Z,79.49
2018-12-10T08:08:32.551Z,79.14
2018-12-10T08:11:00.129Z,78.81
2018-12-10T08:13:27.625Z,78.86
2018-12-10T08:15:55.165Z,78.58
2018-12-10T08:18:22.617Z,78.71
2018-12-10T08:20:50.069Z,78.61
2018-12-10T08:23:17.555Z,79.17
2018-12-10T08:25:44.994Z,77.92
2018-12-10T08:28:12.531Z,77.33
2018-12-10T08:30:39.996Z,76.67
2018-12-10T08:33:07.520Z,75.83
2018-12-10T08:35:40.852Z,77.04
2018-12-10T08:38:04.436Z,77.32
2018-12-10T08:40:31.857Z,76.08
2018-12-10T08:42:59.360Z,76.36
2018-12-10T08:45:26.958Z,75.82
2018-12-10T08:47:54.625Z,75.89
2018-12-10T08:50:22.052Z,76.26
2018-12-10T08:52:49.514Z,76.95
2018-12-10T08:55:16.999Z,77.81
2018-12-10T08:57:44.484Z,79.13
2018-12-10T09:00:11.908Z,79.37
2018-12-10T09:02:39.375Z,78.80
2018-12-10T09:05:06.823Z,78.87
2018-12-10T09:07:34.270Z,78.15
2018-12-10T09:10:01.740Z,78.35
2018-12-10T09:12:29.249Z,79.38
2018-12-10T09:14:57.737Z,79.81
2018-12-10T09:17:25.236Z,79.22
2018-12-10T09:19:52.720Z,79.82
2018-12-10T09:22:20.220Z,79.55
2018-12-10T09:24:47.641Z,79.22
2018-12-10T09:27:15.176Z,78.00
2018-12-10T09:29:42.725Z,77.37
2018-12-10T09:32:12.383Z,77.94
2018-12-10T09:34:39.767Z,77.34
2018-12-10T09:37:07.256Z,76.86
2018-12-10T09:39:34.776Z,76.18
2018-12-10T09:42:02.333Z,76.02
2018-12-10T09:44:29.756Z,75.54
2018-12-10T09:46:59.071Z,76.30
2018-12-10T09:49:26.720Z,74.90
2018-12-10T09:51:54.206Z,75.05
2018-12-10T09:54:21.761Z,75.35
2018-12-10T09:56:49.192Z,75.55
2018-12-10T09:59:16.690Z,75.09
2018-12-10T10:01:44.147Z,75.02
2018-12-10T10:04:11.585Z,73.97
2018-12-10T10:06:39.012Z,74.10
2018-12-10T10:09:06.483Z,74.81
2018-12-10T10:11:33.953Z,75.00
2018-12-10T10:14:01.411Z,74.41
2018-12-10T10:16:28.881Z,73.53
2018-12-10T10:18:56.320Z,73.99
2018-12-10T10:21:23.796Z,73.35
2018-12-10T10:23:51.253Z,73.85
2018-12-10T10:26:18.780Z,72.91
2018-12-10T10:28:46.195Z,73.52
2018-12-10T10:31:13.715Z,72.90
2018-12-10T10:33:41.192Z,72.17
2018-12-10T10:36:08.675Z,70.86
2018-12-10T10:38:36.103Z,71.56
2018-12-10T10:41:03.566Z,70.44
2018-12-10T10:43:31.002Z,70.95
2018-12-10T10:45:58.467Z,69.84
2018-12-10T10:48:26.075Z,69.89
2018-12-10T10:50:53.515Z,69.44
2018-12-10T10:53:21.089Z,68.99
2018-12-10T10:55:48.553Z,69.03
2018-12-10T10:58:16.006Z,68.40
2018-12-10T11:00:48.964Z,68.47
2018-12-10T11:03:21.716Z,69.09
2018-12-10T11:05:49.176Z,67.63
2018-12-10T11:08:16.609Z,67.52
2018-12-10T11:10:44.077Z,67.88
2018-12-10T11:13:11.536Z,66.97
2018-12-10T11:15:39.012Z,67.28
2018-12-10T11:18:06.468Z,66.63
2018-12-10T11:20:33.903Z,67.14
2018-12-10T11:23:01.373Z,66.05
2018-12-10T11:25:28.827Z,67.22
2018-12-10T11:27:56.289Z,66.11
2018-12-10T11:30:23.759Z,67.81
2018-12-10T11:32:51.172Z,67.02
2018-12-10T11:35:18.643Z,69.15
2018-12-10T11:37:46.107Z,68.40
2018-12-10T11:40:13.566Z,70.05
2018-12-10T11:42:41.025Z,71.55
2018-12-10T11:45:08.599Z,71.65
2018-12-10T11:47:36.237Z,73.30
2018-12-10T11:50:03.684Z,74.61
2018-12-10T11:52:31.220Z,74.73
2018-12-10T11:54:58.994Z,73.99
2018-12-10T11:57:26.483Z,74.40
2018-12-10T11:59:53.959Z,73.62
2018-12-10T12:02:29.623Z,73.83
2018-12-10T12:04:50.833Z,72.74
2018-12-10T12:07:18.271Z,72.51
2018-12-10T12:09:45.757Z,73.25
2018-12-10T12:12:13.284Z,74.08
2018-12-10T12:14:40.916Z,73.99
2018-12-10T12:17:08.414Z,76.04
2018-12-10T12:19:35.833Z,75.81
2018-12-10T12:22:05.157Z,75.39
2018-12-10T12:24:32.808Z,73.56
2018-12-10T12:27:00.276Z,72.20
2018-12-10T12:29:27.733Z,71.51
2018-12-10T12:31:55.156Z,69.66
2018-12-10T12:34:22.603Z,68.88
2018-12-10T12:36:50.046Z,68.25
2018-12-10T12:39:17.518Z,68.38
2018-12-10T12:41:44.953Z,67.29
2018-12-10T12:44:12.413Z,67.45
2018-12-10T12:46:40.010Z,67.24
2018-12-10T12:49:07.455Z,66.97
2018-12-10T12:51:34.947Z,69.45
2018-12-10T12:54:02.395Z,69.36
2018-12-10T12:56:29.849Z,69.71
2018-12-10T12:58:57.332Z,69.84
2018-12-10T13:01:24.913Z,70.43
2018-12-10T13:03:52.336Z,69.38
2018-12-10T13:06:19.779Z,69.81
2018-12-10T13:08:47.276Z,68.35
2018-12-10T13:11:14.884Z,68.78
2018-12-10T13:13:42.511Z,68.61
2018-12-10T13:16:09.926Z,68.18
2018-12-10T13:18:37.351Z,68.64
2018-12-10T13:21:04.772Z,67.96
2018-12-10T13:23:32.210Z,68.39
2018-12-10T13:25:59.651Z,69.46
2018-12-10T13:28:27.076Z,69.73
2018-12-10T13:30:54.492Z,68.72
2018-12-10T13:33:21.903Z,67.95
2018-12-10T13:35:49.353Z,66.99
2018-12-10T13:38:16.776Z,67.24
2018-12-10T13:40:44.219Z,67.52
2018-12-10T13:43:12.646Z,67.25
2018-12-10T13:45:40.190Z,66.73
2018-12-10T13:48:07.603Z,66.85
2018-12-10T13:50:35.007Z,66.81
2018-12-10T13:53:02.436Z,67.69
2018-12-10T13:55:29.832Z,67.59
2018-12-10T13:57:57.243Z,67.55
2018-12-10T14:00:24.663Z,67.50
2018-12-10T14:02:52.094Z,67.61
2018-12-10T14:05:19.520Z,67.45
2018-12-10T14:07:48.152Z,66.70
2018-12-10T14:10:15.935Z,66.05
2018-12-10T14:12:43.355Z,66.12
2018-12-10T14:15:10.822Z,65.80
2018-12-10T14:17:38.258Z,65.43
2018-12-10T14:20:05.695Z,65.20
2018-12-10T14:22:33.187Z,65.73
2018-12-10T14:25:00.636Z,64.98
2018-12-10T14:27:28.047Z,65.31
2018-12-10T14:29:55.516Z,66.35
2018-12-10T14:32:22.970Z,68.25
2018-12-10T14:34:50.382Z,69.00
2018-12-10T14:37:17.810Z,69.11
2018-12-10T14:39:45.228Z,70.14
2018-12-10T14:42:12.643Z,69.99
2018-12-10T14:44:40.068Z,69.44
2018-12-10T14:47:07.498Z,70.53
2018-12-10T14:49:34.909Z,71.37
2018-12-10T14:52:02.395Z,72.76
2018-12-10T14:54:29.832Z,72.91
2018-12-10T14:56:57.708Z,72.96
2018-12-10T14:59:25.128Z,73.92
2018-12-10T15:01:52.543Z,73.84
2018-12-10T15:04:19.962Z,72.87
2018-12-10T15:06:47.371Z,73.42
2018-12-10T15:09:14.786Z,73.15
2018-12-10T15:11:42.212Z,73.27
2018-12-10T15:14:09.627Z,71.96
2018-12-10T15:16:37.040Z,72.78
2018-12-10T15:19:04.459Z,73.37
2018-12-10T15:21:31.894Z,72.89
2018-12-10T15:23:59.320Z,71.98
2018-12-10T15:26:26.735Z,71.44
2018-12-10T15:28:54.161Z,71.35
2018-12-10T15:31:21.584Z,69.90
2018-12-10T15:33:49.102Z,70.78
2018-12-10T15:36:16.601Z,70.72
2018-12-10T15:38:44.022Z,69.45
2018-12-10T15:41:11.446Z,69.77
2018-12-10T15:43:38.872Z,69.78
2018-12-10T15:46:06.283Z,69.80
2018-12-10T15:48:33.750Z,69.67
2018-12-10T15:51:01.168Z,69.65
2018-12-10T15:53:28.610Z,71.18
2018-12-10T15:55:56.052Z,70.17
2018-12-10T15:58:23.563Z,70.62
2018-12-10T16:00:51.005Z,70.30
2018-12-10T16:03:18.493Z,69.97
2018-12-10T16:05:45.931Z,71.03
2018-12-10T16:08:14.376Z,69.79
2018-12-10T16:10:41.879Z,70.31
2018-12-10T16:13:09.311Z,70.49
2018-12-10T16:15:36.798Z,70.66
2018-12-10T16:18:04.236Z,69.80
2018-12-10T16:20:31.761Z,70.78
2018-12-10T16:22:59.275Z,70.07
2018-12-10T16:25:26.701Z,69.97
2018-12-10T16:27:54.367Z,70.97
2018-12-10T16:30:22.140Z,70.64
2018-12-10T16:32:49.558Z,70.18
2018-12-10T16:35:17.041Z,70.22
2018-12-10T16:37:44.616Z,70.05
2018-12-10T16:40:12.032Z,71.45
2018-12-10T16:42:39.446Z,70.86
2018-12-10T16:45:06.886Z,70.12
2018-12-10T16:47:34.301Z,70.48
2018-12-10T16:50:01.828Z,70.31
2018-12-10T16:52:29.243Z,70.30
2018-12-10T16:54:56.671Z,70.96
2018-12-10T16:57:24.087Z,69.67
2018-12-10T16:59:51.563Z,70.41
2018-12-10T17:02:19.007Z,70.62
2018-12-10T17:04:46.430Z,70.73
2018-12-10T17:07:14.506Z,70.81
2018-12-10T17:09:42.297Z,70.42
2018-12-10T17:12:09.963Z,70.73
2018-12-10T17:14:37.414Z,70.91
2018-12-10T17:17:04.987Z,70.42
2018-12-10T17:19:32.419Z,71.07
2018-12-10T17:21:59.855Z,71.59
2018-12-10T17:24:27.375Z,70.85
2018-12-10T17:26:55.574Z,71.45
2018-12-10T17:29:23.087Z,71.79
2018-12-10T17:31:50.564Z,72.11
2018-12-10T17:34:17.992Z,72.35
2018-12-10T17:36:45.411Z,72.44
2018-12-10T17:39:12.831Z,72.28
2018-12-10T17:41:40.238Z,72.38
2018-12-10T17:44:07.662Z,72.78
2018-12-10T17:46:35.080Z,73.51
2018-12-10T17:49:02.635Z,73.24
2018-12-10T17:51:30.050Z,73.73
2018-12-10T17:53:57.734Z,74.18
2018-12-10T17:56:25.195Z,74.03
2018-12-10T17:58:52.682Z,73.32
2018-12-10T18:01:20.100Z,73.63
2018-12-10T18:03:47.523Z,73.39
2018-12-10T18:06:14.931Z,73.84
2018-12-10T18:08:42.349Z,73.84
2018-12-10T18:11:09.758Z,74.38
2018-12-10T18:13:37.181Z,75.29
2018-12-10T18:16:04.782Z,76.20
2018-12-10T18:18:32.712Z,76.15
2018-12-10T18:21:00.303Z,76.08
2018-12-10T18:23:27.731Z,77.51
2018-12-10T18:25:55.227Z,77.62
2018-12-10T18:28:22.691Z,77.74
2018-12-10T18:30:50.351Z,78.65
2018-12-10T18:33:17.846Z,79.16
2018-12-10T18:35:45.269Z,78.29
2018-12-10T18:38:12.674Z,78.69
2018-12-10T18:40:40.171Z,79.27
2018-12-10T18:43:07.580Z,78.39
2018-12-10T18:45:35.098Z,78.05
2018-12-10T18:48:02.553Z,78.07
2018-12-10T18:50:30.507Z,78.67
2018-12-10T18:52:58.124Z,78.69
2018-12-10T18:55:25.549Z,78.78
2018-12-10T18:57:53.606Z,79.61
2018-12-10T19:00:21.058Z,80.12
2018-12-10T19:02:48.483Z,80.51
2018-12-10T19:05:15.978Z,81.02
2018-12-10T19:07:44.199Z,81.34
2018-12-10T19:10:11.618Z,81.65
2018-12-10T19:12:39.284Z,81.44
2018-12-10T19:15:06.763Z,80.39
2018-12-10T19:17:34.291Z,80.37
2018-12-10T19:20:01.724Z,80.58
2018-12-10T19:22:29.255Z,80.31
2018-12-10T19:24:56.735Z,80.90
2018-12-10T19:27:24.174Z,80.11
2018-12-10T19:29:51.693Z,80.53
2018-12-10T19:32:19.143Z,80.11
2018-12-10T19:34:46.605Z,79.68
2018-12-10T19:37:14.020Z,79.94
2018-12-10T19:39:41.439Z,80.43
2018-12-10T19:42:08.864Z,79.92
2018-12-10T19:44:36.300Z,80.22
2018-12-10T19:47:04.384Z,79.97
2018-12-10T19:49:31.848Z,79.25
2018-12-10T19:51:59.432Z,79.84
2018-12-10T19:54:26.882Z,79.94
2018-12-10T19:56:54.295Z,78.82
2018-12-10T19:59:21.801Z,78.69
2018-12-10T20:01:49.287Z,78.25
2018-12-10T20:04:16.699Z,77.90
2018-12-10T20:06:49.550Z,77.95
2018-12-10T20:09:16.975Z,77.76
2018-12-10T20:11:44.403Z,77.56
2018-12-10T20:14:11.814Z,78.31
2018-12-10T20:16:39.319Z,79.21
2018-12-10T20:19:06.771Z,78.64
2018-12-10T20:21:34.207Z,78.52
2018-12-10T20:24:01.695Z,79.02
2018-12-10T20:26:29.182Z,79.79
2018-12-10T20:28:56.769Z,79.98
2018-12-10T20:31:24.276Z,81.50
2018-12-10T20:33:51.865Z,81.70
2018-12-10T20:36:19.361Z,82.34
2018-12-10T20:38:46.823Z,81.93
2018-12-10T20:41:14.246Z,81.66
2018-12-10T20:43:41.826Z,81.99
2018-12-10T20:46:09.339Z,82.48
2018-12-10T20:48:36.743Z,82.28
2018-12-10T20:51:04.169Z,82.02
2018-12-10T20:53:31.800Z,82.26
2018-12-10T20:55:59.223Z,81.15
2018-12-10T20:58:26.640Z,81.63
2018-12-10T21:00:54.096Z,81.25
2018-12-10T21:03:21.517Z,80.51
2018-12-10T21:05:54.370Z,80.27
2018-12-10T21:08:22.301Z,80.71
2018-12-10T21:10:49.736Z,80.17
2018-12-10T21:13:17.532Z,79.55
2018-12-10T21:15:44.967Z,79.36
2018-12-10T21:18:12.386Z,79.63
2018-12-10T21:20:39.798Z,79.80
2018-12-10T21:23:07.198Z,79.90
2018-12-10T21:25:34.621Z,79.26
2018-12-10T21:28:02.030Z,79.47
2018-12-10T21:30:29.461Z,79.48
2018-12-10T21:32:56.879Z,79.01
2018-12-10T21:35:24.292Z,79.13
2018-12-10T21:37:51.781Z,79.21
2018-12-10T21:40:19.190Z,78.99
2018-12-10T21:42:46.690Z,78.52
2018-12-10T21:45:14.602Z,78.94
2018-12-10T21:47:42.031Z,78.93
2018-12-10T21:50:09.461Z,78.96
2018-12-10T21:52:36.895Z,78.35
2018-12-10T21:55:04.314Z,78.66
2018-12-10T21:57:31.736Z,78.99
2018-12-10T21:59:59.196Z,79.24
2018-12-10T22:02:26.615Z,79.05
2018-12-10T22:04:54.112Z,78.37
2018-12-10T22:07:21.572Z,77.98
2018-12-10T22:09:49.024Z,78.62
2018-12-10T22:12:16.467Z,78.29
2018-12-10T22:14:43.868Z,77.55
2018-12-10T22:17:11.295Z,77.44
2018-12-10T22:19:39.585Z,76.52
2018-12-10T22:22:06.999Z,76.90
2018-12-10T22:24:34.407Z,76.79
2018-12-10T22:27:01.878Z,77.08
2018-12-10T22:29:29.297Z,76.87
2018-12-10T22:31:56.750Z,76.79
2018-12-10T22:34:25.091Z,77.53
2018-12-10T22:36:52.506Z,77.19
2018-12-10T22:39:19.937Z,77.83
2018-12-10T22:41:47.407Z,78.75
2018-12-10T22:44:14.829Z,79.77
2018-12-10T22:46:42.245Z,80.58
2018-12-10T22:49:09.655Z,80.83
2018-12-10T22:51:37.138Z,81.41
2018-12-10T22:54:04.609Z,80.88
2018-12-10T22:56:32.151Z,80.77
2018-12-10T22:58:59.554Z,81.12
2018-12-10T23:01:26.971Z,80.20
2018-12-10T23:03:54.435Z,79.47
2018-12-10T23:06:21.859Z,78.69
2018-12-10T23:08:49.285Z,79.40
2018-12-10T23:11:16.797Z,78.58
2018-12-10T23:13:44.211Z,77.73
2018-12-10T23:16:11.652Z,79.07
2018-12-10T23:18:39.067Z,79.28
2018-12-10T23:21:06.760Z,79.35
2018-12-10T23:23:34.177Z,79.33
2018-12-10T23:26:01.605Z,80.09
2018-12-10T23:28:29.099Z,79.93
2018-12-10T23:30:56.510Z,80.56
2018-12-10T23:33:23.928Z,80.51
2018-12-10T23:35:51.373Z,80.08
2018-12-10T23:38:18.835Z,80.18
2018-12-10T23:40:46.287Z,80.67
2018-12-10T23:43:19.028Z,80.11
2018-12-10T23:45:46.439Z,80.00
2018-12-10T23:48:13.874Z,80.60
2018-12-10T23:50:41.661Z,80.49
2018-12-10T23:53:09.087Z,80.74
2018-12-10T23:55:36.527Z,80.65
2018-12-10T23:58:03.944Z,80.07
